sensor_id;sensor_type;location;lat;lon;timestamp;pressure;altitude;pressure_sealevel;temperature;humidity
46347;BME280;32057;47.830;19.046;2024-01-16T00:01:26;99030.09;;;-0.22;100.00
46347;BME280;32057;47.830;19.046;2024-01-16T00:03:51;99024.91;;;-0.23;100.00
46347;BME280;32057;47.830;19.046;2024-01-16T00:06:17;99029.16;;;-0.24;100.00
46347;BME280;32057;47.830;19.046;2024-01-16T00:08:42;99035.16;;;-0.23;100.00
46347;BME280;32057;47.830;19.046;2024-01-16T00:11:08;99023.13;;;-0.26;100.00
46347;BME280;32057;47.830;19.046;2024-01-16T00:13:33;99022.28;;;-0.25;100.00
46347;BME280;32057;47.830;19.046;2024-01-16T00:15:58;99035.06;;;-0.25;100.00
46347;BME280;32057;47.830;19.046;2024-01-16T00:18:24;99026.41;;;-0.28;100.00
46347;BME280;32057;47.830;19.046;2024-01-16T00:20:49;99030.91;;;-0.23;100.00
46347;BME280;32057;47.830;19.046;2024-01-16T00:23:14;99029.41;;;-0.17;100.00
46347;BME280;32057;47.830;19.046;2024-01-16T00:25:40;99032.09;;;-0.14;100.00
46347;BME280;32057;47.830;19.046;2024-01-16T00:28:06;99035.53;;;-0.14;100.00
46347;BME280;32057;47.830;19.046;2024-01-16T00:30:31;99046.63;;;-0.13;100.00
46347;BME280;32057;47.830;19.046;2024-01-16T00:32:58;99057.13;;;-0.07;100.00
46347;BME280;32057;47.830;19.046;2024-01-16T00:35:23;99064.34;;;0.03;100.00
46347;BME280;32057;47.830;19.046;2024-01-16T00:37:49;99069.78;;;0.11;100.00
46347;BME280;32057;47.830;19.046;2024-01-16T00:40:14;99085.31;;;0.15;100.00
46347;BME280;32057;47.830;19.046;2024-01-16T00:42:39;99088.97;;;0.21;100.00
46347;BME280;32057;47.830;19.046;2024-01-16T00:45:05;99092.47;;;0.23;100.00
46347;BME280;32057;47.830;19.046;2024-01-16T00:47:30;99095.81;;;0.22;100.00
46347;BME280;32057;47.830;19.046;2024-01-16T00:49:56;99098.44;;;0.23;100.00
46347;BME280;32057;47.830;19.046;2024-01-16T00:52:21;99106.00;;;0.20;100.00
46347;BME280;32057;47.830;19.046;2024-01-16T00:54:46;99107.66;;;0.19;100.00
46347;BME280;32057;47.830;19.046;2024-01-16T00:57:13;99105.25;;;0.23;100.00
46347;BME280;32057;47.830;19.046;2024-01-16T00:59:41;99112.78;;;0.19;100.00
46347;BME280;32057;47.830;19.046;2024-01-16T01:02:06;99110.16;;;0.18;100.00
46347;BME280;32057;47.830;19.046;2024-01-16T01:04:34;99121.97;;;0.14;100.00
46347;BME280;32057;47.830;19.046;2024-01-16T01:07:00;99125.25;;;0.12;100.00
46347;BME280;32057;47.830;19.046;2024-01-16T01:09:25;99125.13;;;0.09;100.00
46347;BME280;32057;47.830;19.046;2024-01-16T01:11:50;99140.31;;;0.06;100.00
46347;BME280;32057;47.830;19.046;2024-01-16T01:14:16;99140.31;;;0.06;100.00
46347;BME280;32057;47.830;19.046;2024-01-16T01:16:41;99151.72;;;0.12;100.00
46347;BME280;32057;47.830;19.046;2024-01-16T01:19:06;99153.19;;;0.07;100.00
46347;BME280;32057;47.830;19.046;2024-01-16T01:21:32;99154.88;;;0.07;100.00
46347;BME280;32057;47.830;19.046;2024-01-16T01:23:57;99153.19;;;0.07;100.00
46347;BME280;32057;47.830;19.046;2024-01-16T01:26:22;99152.06;;;0.01;100.00
46347;BME280;32057;47.830;19.046;2024-01-16T01:28:48;99153.53;;;-0.05;100.00
46347;BME280;32057;47.830;19.046;2024-01-16T01:31:13;99162.16;;;-0.03;100.00
46347;BME280;32057;47.830;19.046;2024-01-16T01:33:39;99166.53;;;0.00;100.00
46347;BME280;32057;47.830;19.046;2024-01-16T01:36:05;99163.00;;;-0.02;100.00
46347;BME280;32057;47.830;19.046;2024-01-16T01:38:30;99162.03;;;-0.06;100.00
46347;BME280;32057;47.830;19.046;2024-01-16T01:40:56;99162.97;;;-0.04;100.00
46347;BME280;32057;47.830;19.046;2024-01-16T01:43:23;99169.75;;;-0.04;100.00
46347;BME280;32057;47.830;19.046;2024-01-16T01:46:17;99171.78;;;0.03;100.00
46347;BME280;32057;47.830;19.046;2024-01-16T01:48:43;99169.34;;;0.06;100.00
46347;BME280;32057;47.830;19.046;2024-01-16T01:51:09;99168.59;;;0.09;100.00
46347;BME280;32057;47.830;19.046;2024-01-16T01:53:36;99173.03;;;0.13;100.00
46347;BME280;32057;47.830;19.046;2024-01-16T01:56:03;99163.69;;;0.13;100.00
46347;BME280;32057;47.830;19.046;2024-01-16T01:58:32;99178.28;;;0.16;100.00
46347;BME280;32057;47.830;19.046;2024-01-16T02:00:57;99183.34;;;0.14;100.00
46347;BME280;32057;47.830;19.046;2024-01-16T02:03:25;99179.09;;;0.15;100.00
46347;BME280;32057;47.830;19.046;2024-01-16T02:05:52;99180.53;;;0.08;100.00
46347;BME280;32057;47.830;19.046;2024-01-16T02:08:17;99183.00;;;0.07;100.00
46347;BME280;32057;47.830;19.046;2024-01-16T02:10:45;99189.88;;;0.08;100.00
46347;BME280;32057;47.830;19.046;2024-01-16T02:13:12;99194.09;;;0.07;100.00
46347;BME280;32057;47.830;19.046;2024-01-16T02:15:38;99190.63;;;0.05;100.00
46347;BME280;32057;47.830;19.046;2024-01-16T02:18:09;99198.28;;;0.05;100.00
46347;BME280;32057;47.830;19.046;2024-01-16T02:20:34;99207.03;;;0.10;100.00
46347;BME280;32057;47.830;19.046;2024-01-16T02:23:03;99212.44;;;0.16;100.00
46347;BME280;32057;47.830;19.046;2024-01-16T02:25:29;99214.31;;;0.21;100.00
46347;BME280;32057;47.830;19.046;2024-01-16T02:27:54;99216.97;;;0.24;100.00
46347;BME280;32057;47.830;19.046;2024-01-16T02:30:20;99222.09;;;0.24;100.00
46347;BME280;32057;47.830;19.046;2024-01-16T02:32:45;99220.47;;;0.26;100.00
46347;BME280;32057;47.830;19.046;2024-01-16T02:35:10;99220.63;;;0.29;100.00
46347;BME280;32057;47.830;19.046;2024-01-16T02:37:36;99234.47;;;0.34;100.00
46347;BME280;32057;47.830;19.046;2024-01-16T02:40:01;99234.47;;;0.34;100.00
46347;BME280;32057;47.830;19.046;2024-01-16T02:42:33;99233.84;;;0.38;100.00
46347;BME280;32057;47.830;19.046;2024-01-16T02:44:59;99241.56;;;0.39;100.00
46347;BME280;32057;47.830;19.046;2024-01-16T02:47:24;99235.56;;;0.39;100.00
46347;BME280;32057;47.830;19.046;2024-01-16T02:49:49;99239.00;;;0.39;100.00
46347;BME280;32057;47.830;19.046;2024-01-16T02:52:15;99236.56;;;0.43;100.00
46347;BME280;32057;47.830;19.046;2024-01-16T02:54:41;99230.72;;;0.45;100.00
46347;BME280;32057;47.830;19.046;2024-01-16T02:57:06;99236.66;;;0.44;100.00
46347;BME280;32057;47.830;19.046;2024-01-16T02:59:31;99231.53;;;0.44;100.00
46347;BME280;32057;47.830;19.046;2024-01-16T03:01:57;99239.22;;;0.44;100.00
46347;BME280;32057;47.830;19.046;2024-01-16T03:04:22;99240.88;;;0.44;100.00
46347;BME280;32057;47.830;19.046;2024-01-16T03:06:48;99237.44;;;0.43;100.00
46347;BME280;32057;47.830;19.046;2024-01-16T03:09:13;99235.56;;;0.39;100.00
46347;BME280;32057;47.830;19.046;2024-01-16T03:11:38;99226.16;;;0.38;100.00
46347;BME280;32057;47.830;19.046;2024-01-16T03:14:05;99230.59;;;0.42;100.00
46347;BME280;32057;47.830;19.046;2024-01-16T03:16:31;99237.53;;;0.45;100.00
46347;BME280;32057;47.830;19.046;2024-01-16T03:18:57;99231.53;;;0.44;100.00
46347;BME280;32057;47.830;19.046;2024-01-16T03:21:22;99239.06;;;0.41;100.00
46347;BME280;32057;47.830;19.046;2024-01-16T03:23:47;99236.41;;;0.38;100.00
46347;BME280;32057;47.830;19.046;2024-01-16T03:26:13;99241.38;;;0.35;100.00
46347;BME280;32057;47.830;19.046;2024-01-16T03:28:39;99235.22;;;0.31;100.00
46347;BME280;32057;47.830;19.046;2024-01-16T03:31:05;99245.63;;;0.34;100.00
46347;BME280;32057;47.830;19.046;2024-01-16T03:33:30;99245.66;;;0.36;100.00
46347;BME280;32057;47.830;19.046;2024-01-16T03:35:55;99249.84;;;0.34;100.00
46347;BME280;32057;47.830;19.046;2024-01-16T03:38:21;99255.69;;;0.31;100.00
46347;BME280;32057;47.830;19.046;2024-01-16T03:40:46;99258.19;;;0.30;100.00
46347;BME280;32057;47.830;19.046;2024-01-16T03:43:11;99264.19;;;0.30;100.00
46347;BME280;32057;47.830;19.046;2024-01-16T03:45:37;99263.31;;;0.30;100.00
46347;BME280;32057;47.830;19.046;2024-01-16T03:48:02;99261.63;;;0.30;100.00
46347;BME280;32057;47.830;19.046;2024-01-16T03:50:30;99271.88;;;0.30;100.00
46347;BME280;32057;47.830;19.046;2024-01-16T03:52:56;99277.25;;;0.36;100.00
46347;BME280;32057;47.830;19.046;2024-01-16T03:55:21;99281.69;;;0.41;100.00
46347;BME280;32057;47.830;19.046;2024-01-16T03:57:46;99281.63;;;0.39;100.00
46347;BME280;32057;47.830;19.046;2024-01-16T04:00:12;99287.56;;;0.38;100.00
46347;BME280;32057;47.830;19.046;2024-01-16T04:02:38;99295.38;;;0.41;100.00
46347;BME280;32057;47.830;19.046;2024-01-16T04:05:04;99291.34;;;0.46;100.00
46347;BME280;32057;47.830;19.046;2024-01-16T04:07:30;99287.16;;;0.48;100.00
46347;BME280;32057;47.830;19.046;2024-01-16T04:09:56;99304.25;;;0.49;100.00
46347;BME280;32057;47.830;19.046;2024-01-16T04:12:21;99306.97;;;0.52;100.00
46347;BME280;32057;47.830;19.046;2024-01-16T04:14:47;99303.47;;;0.50;100.00
46347;BME280;32057;47.830;19.046;2024-01-16T04:17:12;99309.38;;;0.49;100.00
46347;BME280;32057;47.830;19.046;2024-01-16T04:19:37;99315.16;;;0.45;100.00
46347;BME280;32057;47.830;19.046;2024-01-16T04:22:04;99316.97;;;0.48;100.00
46347;BME280;32057;47.830;19.046;2024-01-16T04:24:30;99320.53;;;0.51;100.00
46347;BME280;32057;47.830;19.046;2024-01-16T04:26:55;99320.53;;;0.51;100.00
46347;BME280;32057;47.830;19.046;2024-01-16T04:29:21;99328.31;;;0.53;100.00
46347;BME280;32057;47.830;19.046;2024-01-16T04:31:46;99335.78;;;0.48;100.00
46347;BME280;32057;47.830;19.046;2024-01-16T04:34:11;99339.13;;;0.47;100.00
46347;BME280;32057;47.830;19.046;2024-01-16T04:36:37;99345.00;;;0.45;100.00
46347;BME280;32057;47.830;19.046;2024-01-16T04:39:02;99356.84;;;0.43;100.00
46347;BME280;32057;47.830;19.046;2024-01-16T04:41:29;99361.09;;;0.42;100.00
46347;BME280;32057;47.830;19.046;2024-01-16T04:43:54;99364.47;;;0.41;100.00
46347;BME280;32057;47.830;19.046;2024-01-16T04:46:20;99360.97;;;0.39;100.00
46347;BME280;32057;47.830;19.046;2024-01-16T04:48:45;99371.34;;;0.42;100.00
46347;BME280;32057;47.830;19.046;2024-01-16T04:51:10;99376.31;;;0.39;100.00
46347;BME280;32057;47.830;19.046;2024-01-16T04:53:36;99378.88;;;0.39;100.00
46347;BME280;32057;47.830;19.046;2024-01-16T04:56:01;99371.19;;;0.39;100.00
46347;BME280;32057;47.830;19.046;2024-01-16T04:58:27;99380.47;;;0.37;100.00
46347;BME280;32057;47.830;19.046;2024-01-16T05:00:53;99390.63;;;0.35;100.00
46347;BME280;32057;47.830;19.046;2024-01-16T05:03:18;99381.94;;;0.32;100.00
46347;BME280;32057;47.830;19.046;2024-01-16T05:05:43;99392.84;;;0.28;100.00
46347;BME280;32057;47.830;19.046;2024-01-16T05:08:09;99388.66;;;0.30;100.00
46347;BME280;32057;47.830;19.046;2024-01-16T05:10:34;99391.22;;;0.30;100.00
46347;BME280;32057;47.830;19.046;2024-01-16T05:13:00;99396.06;;;0.24;100.00
46347;BME280;32057;47.830;19.046;2024-01-16T05:15:25;99401.19;;;0.24;100.00
46347;BME280;32057;47.830;19.046;2024-01-16T05:17:50;99404.41;;;0.19;100.00
46347;BME280;32057;47.830;19.046;2024-01-16T05:20:16;99404.22;;;0.15;100.00
46347;BME280;32057;47.830;19.046;2024-01-16T05:22:41;99408.38;;;0.13;100.00
46347;BME280;32057;47.830;19.046;2024-01-16T05:25:07;99417.88;;;0.15;100.00
46347;BME280;32057;47.830;19.046;2024-01-16T05:27:33;99421.38;;;0.17;100.00
46347;BME280;32057;47.830;19.046;2024-01-16T05:29:59;99427.31;;;0.16;100.00
46347;BME280;32057;47.830;19.046;2024-01-16T05:32:25;99433.97;;;0.13;100.00
46347;BME280;32057;47.830;19.046;2024-01-16T05:34:51;99438.13;;;0.11;100.00
46347;BME280;32057;47.830;19.046;2024-01-16T05:37:16;99442.38;;;0.10;100.00
46347;BME280;32057;47.830;19.046;2024-01-16T05:39:42;99441.25;;;0.05;100.00
46347;BME280;32057;47.830;19.046;2024-01-16T05:42:07;99449.75;;;0.04;100.00
46347;BME280;32057;47.830;19.046;2024-01-16T05:44:32;99439.44;;;0.03;100.00
46347;BME280;32057;47.830;19.046;2024-01-16T05:46:58;99444.63;;;0.04;100.00
46347;BME280;32057;47.830;19.046;2024-01-16T05:49:23;99443.91;;;0.07;100.00
46347;BME280;32057;47.830;19.046;2024-01-16T05:51:48;99441.91;;;0.01;100.00
46347;BME280;32057;47.830;19.046;2024-01-16T05:54:14;99449.44;;;-0.02;100.00
46347;BME280;32057;47.830;19.046;2024-01-16T05:56:39;99451.97;;;-0.02;100.00
46347;BME280;32057;47.830;19.046;2024-01-16T05:59:04;99471.66;;;-0.01;100.00
46347;BME280;32057;47.830;19.046;2024-01-16T06:01:30;99464.00;;;-0.01;100.00
46347;BME280;32057;47.830;19.046;2024-01-16T06:03:55;99472.41;;;-0.04;100.00
46347;BME280;32057;47.830;19.046;2024-01-16T06:06:20;99472.97;;;-0.09;100.00
46347;BME280;32057;47.830;19.046;2024-01-16T06:08:46;99483.19;;;-0.09;100.00
46347;BME280;32057;47.830;19.046;2024-01-16T06:11:11;99483.50;;;-0.03;100.00
46347;BME280;32057;47.830;19.046;2024-01-16T06:13:37;99479.34;;;-0.01;100.00
46347;BME280;32057;47.830;19.046;2024-01-16T06:16:03;99480.28;;;0.01;100.00
46347;BME280;32057;47.830;19.046;2024-01-16T06:18:28;99494.59;;;-0.03;100.00
46347;BME280;32057;47.830;19.046;2024-01-16T06:20:53;99490.22;;;-0.05;100.00
46347;BME280;32057;47.830;19.046;2024-01-16T06:23:19;99493.72;;;-0.03;100.00
46347;BME280;32057;47.830;19.046;2024-01-16T06:25:44;99492.69;;;-0.07;100.00
46347;BME280;32057;47.830;19.046;2024-01-16T06:28:09;99496.06;;;-0.08;100.00
46347;BME280;32057;47.830;19.046;2024-01-16T06:30:35;99507.00;;;-0.10;100.00
46347;BME280;32057;47.830;19.046;2024-01-16T06:33:00;99502.69;;;-0.11;100.00
46347;BME280;32057;47.830;19.046;2024-01-16T06:35:25;99511.03;;;-0.15;100.00
46347;BME280;32057;47.830;19.046;2024-01-16T06:37:51;99521.47;;;-0.11;100.00
46347;BME280;32057;47.830;19.046;2024-01-16T06:40:16;99524.84;;;-0.12;100.00
46347;BME280;32057;47.830;19.046;2024-01-16T06:42:42;99527.31;;;-0.13;100.00
46347;BME280;32057;47.830;19.046;2024-01-16T06:45:07;99529.06;;;-0.12;100.00
46347;BME280;32057;47.830;19.046;2024-01-16T06:47:32;99538.50;;;-0.11;100.00
46347;BME280;32057;47.830;19.046;2024-01-16T06:49:58;99545.31;;;-0.12;100.00
46347;BME280;32057;47.830;19.046;2024-01-16T06:52:23;99551.28;;;-0.11;100.00
46347;BME280;32057;47.830;19.046;2024-01-16T06:54:50;99546.97;;;-0.12;100.00
46347;BME280;32057;47.830;19.046;2024-01-16T06:57:15;99556.41;;;-0.11;100.00
46347;BME280;32057;47.830;19.046;2024-01-16T06:59:40;99569.97;;;-0.12;100.00
46347;BME280;32057;47.830;19.046;2024-01-16T07:02:06;99570.13;;;-0.09;100.00
46347;BME280;32057;47.830;19.046;2024-01-16T07:04:31;99572.91;;;-0.05;100.00
46347;BME280;32057;47.830;19.046;2024-01-16T07:06:57;99575.72;;;0.00;100.00
46347;BME280;32057;47.830;19.046;2024-01-16T07:09:24;99580.41;;;0.09;100.00
46347;BME280;32057;47.830;19.046;2024-01-16T07:11:49;99579.31;;;0.22;100.00
46347;BME280;32057;47.830;19.046;2024-01-16T07:14:15;99587.59;;;0.34;100.00
46347;BME280;32057;47.830;19.046;2024-01-16T07:16:40;99590.25;;;0.35;100.00
46347;BME280;32057;47.830;19.046;2024-01-16T07:19:06;99597.44;;;0.43;100.00
46347;BME280;32057;47.830;19.046;2024-01-16T07:21:31;99596.25;;;0.54;99.39
46347;BME280;32057;47.830;19.046;2024-01-16T07:23:56;99601.38;;;0.54;98.64
46347;BME280;32057;47.830;19.046;2024-01-16T07:26:23;99600.66;;;0.56;98.17
46347;BME280;32057;47.830;19.046;2024-01-16T07:28:48;99606.72;;;0.58;98.87
46347;BME280;32057;47.830;19.046;2024-01-16T07:31:15;99603.34;;;0.59;97.14
46347;BME280;32057;47.830;19.046;2024-01-16T07:33:41;99616.88;;;0.57;97.28
46347;BME280;32057;47.830;19.046;2024-01-16T07:36:08;99617.69;;;0.56;95.87
46347;BME280;32057;47.830;19.046;2024-01-16T07:38:33;99621.22;;;0.58;97.02
46347;BME280;32057;47.830;19.046;2024-01-16T07:40:59;99623.03;;;0.61;95.57
46347;BME280;32057;47.830;19.046;2024-01-16T07:43:24;99631.09;;;0.68;96.11
46347;BME280;32057;47.830;19.046;2024-01-16T07:45:50;99637.97;;;0.69;95.85
46347;BME280;32057;47.830;19.046;2024-01-16T07:48:15;99637.22;;;0.72;96.53
46347;BME280;32057;47.830;19.046;2024-01-16T07:50:41;99645.56;;;0.68;93.73
46347;BME280;32057;47.830;19.046;2024-01-16T07:53:06;99648.59;;;0.77;94.31
46347;BME280;32057;47.830;19.046;2024-01-16T07:55:31;99668.13;;;0.75;93.72
46347;BME280;32057;47.830;19.046;2024-01-16T07:57:57;99663.94;;;0.77;94.48
46347;BME280;32057;47.830;19.046;2024-01-16T08:00:22;99672.56;;;0.79;93.46
46347;BME280;32057;47.830;19.046;2024-01-16T08:02:47;99683.47;;;0.75;94.02
46347;BME280;32057;47.830;19.046;2024-01-16T08:05:14;99675.78;;;0.75;94.57
46347;BME280;32057;47.830;19.046;2024-01-16T08:07:39;99685.31;;;0.77;94.03
46347;BME280;32057;47.830;19.046;2024-01-16T08:10:08;99690.38;;;0.76;93.28
46347;BME280;32057;47.830;19.046;2024-01-16T08:12:33;99687.06;;;0.78;92.99
46347;BME280;32057;47.830;19.046;2024-01-16T08:14:59;99682.16;;;0.83;93.84
46347;BME280;32057;47.830;19.046;2024-01-16T08:17:24;99688.16;;;0.84;93.89
46347;BME280;32057;47.830;19.046;2024-01-16T08:19:49;99685.38;;;0.79;93.99
46347;BME280;32057;47.830;19.046;2024-01-16T08:22:15;99686.41;;;0.83;93.64
46347;BME280;32057;47.830;19.046;2024-01-16T08:24:40;99690.97;;;0.88;94.54
46347;BME280;32057;47.830;19.046;2024-01-16T08:27:05;99695.25;;;0.89;94.11
46347;BME280;32057;47.830;19.046;2024-01-16T08:29:31;99691.75;;;0.87;93.46
46347;BME280;32057;47.830;19.046;2024-01-16T08:31:56;99699.66;;;0.92;92.71
46347;BME280;32057;47.830;19.046;2024-01-16T08:34:21;99702.88;;;0.88;92.23
46347;BME280;32057;47.830;19.046;2024-01-16T08:36:47;99704.63;;;0.89;93.18
46347;BME280;32057;47.830;19.046;2024-01-16T08:39:12;99704.63;;;0.89;91.86
46347;BME280;32057;47.830;19.046;2024-01-16T08:41:37;99704.16;;;0.96;92.36
46347;BME280;32057;47.830;19.046;2024-01-16T08:44:03;99705.31;;;1.03;92.28
46347;BME280;32057;47.830;19.046;2024-01-16T08:46:29;99712.34;;;1.07;91.14
46347;BME280;32057;47.830;19.046;2024-01-16T08:48:54;99714.06;;;1.08;90.75
46347;BME280;32057;47.830;19.046;2024-01-16T08:51:20;99708.25;;;1.10;90.99
46347;BME280;32057;47.830;19.046;2024-01-16T08:53:45;99715.97;;;1.12;90.43
46347;BME280;32057;47.830;19.046;2024-01-16T08:56:11;99719.44;;;1.12;88.37
46347;BME280;32057;47.830;19.046;2024-01-16T08:58:38;99724.78;;;1.17;88.65
46347;BME280;32057;47.830;19.046;2024-01-16T09:01:04;99721.72;;;1.24;87.17
46347;BME280;32057;47.830;19.046;2024-01-16T09:03:33;99728.59;;;1.25;87.48
46347;BME280;32057;47.830;19.046;2024-01-16T09:05:59;99739.00;;;1.28;85.84
46347;BME280;32057;47.830;19.046;2024-01-16T09:08:26;99736.44;;;1.28;86.45
46347;BME280;32057;47.830;19.046;2024-01-16T09:10:52;99749.53;;;1.34;87.15
46347;BME280;32057;47.830;19.046;2024-01-16T09:13:18;99742.88;;;1.38;86.77
46347;BME280;32057;47.830;19.046;2024-01-16T09:15:43;99744.72;;;1.41;85.42
46347;BME280;32057;47.830;19.046;2024-01-16T09:18:08;99741.56;;;1.46;85.08
46347;BME280;32057;47.830;19.046;2024-01-16T09:20:34;99740.16;;;1.53;83.16
46347;BME280;32057;47.830;19.046;2024-01-16T09:22:59;99748.03;;;1.57;83.60
46347;BME280;32057;47.830;19.046;2024-01-16T09:25:25;99752.47;;;1.60;80.28
46347;BME280;32057;47.830;19.046;2024-01-16T09:27:52;99751.56;;;1.59;80.98
46347;BME280;32057;47.830;19.046;2024-01-16T09:30:18;99751.13;;;1.68;80.83
46347;BME280;32057;47.830;19.046;2024-01-16T09:32:44;99751.25;;;1.71;80.29
46347;BME280;32057;47.830;19.046;2024-01-16T09:35:10;99747.66;;;1.68;80.32
46347;BME280;32057;47.830;19.046;2024-01-16T09:37:36;99754.09;;;1.77;80.19
46347;BME280;32057;47.830;19.046;2024-01-16T09:40:01;99761.78;;;1.77;80.81
46347;BME280;32057;47.830;19.046;2024-01-16T09:42:27;99761.13;;;1.82;78.92
46347;BME280;32057;47.830;19.046;2024-01-16T09:44:53;99765.59;;;1.86;79.05
46347;BME280;32057;47.830;19.046;2024-01-16T09:47:20;99759.66;;;1.87;78.03
46347;BME280;32057;47.830;19.046;2024-01-16T09:49:46;99758.13;;;1.90;78.63
46347;BME280;32057;47.830;19.046;2024-01-16T09:52:13;99760.13;;;1.97;78.96
46347;BME280;32057;47.830;19.046;2024-01-16T09:54:38;99757.81;;;2.02;78.29
46347;BME280;32057;47.830;19.046;2024-01-16T09:57:06;99760.41;;;2.04;76.54
46347;BME280;32057;47.830;19.046;2024-01-16T09:59:32;99756.31;;;2.07;77.00
46347;BME280;32057;47.830;19.046;2024-01-16T10:02:01;99757.53;;;2.15;76.88
46347;BME280;32057;47.830;19.046;2024-01-16T10:04:30;99761.44;;;2.07;77.65
46347;BME280;32057;47.830;19.046;2024-01-16T10:06:56;99758.06;;;2.08;77.92
46347;BME280;32057;47.830;19.046;2024-01-16T10:09:23;99759.22;;;2.15;76.08
46347;BME280;32057;47.830;19.046;2024-01-16T10:11:50;99752.47;;;2.17;77.25
46347;BME280;32057;47.830;19.046;2024-01-16T10:14:17;99755.97;;;2.19;76.23
46347;BME280;32057;47.830;19.046;2024-01-16T10:16:58;99749.22;;;2.21;76.80
46347;BME280;32057;47.830;19.046;2024-01-16T10:19:27;99745.09;;;2.25;76.80
46347;BME280;32057;47.830;19.046;2024-01-16T10:21:52;99746.06;;;2.27;75.62
46347;BME280;32057;47.830;19.046;2024-01-16T10:24:18;99739.97;;;2.25;75.54
46347;BME280;32057;47.830;19.046;2024-01-16T10:26:43;99746.72;;;2.23;74.84
46347;BME280;32057;47.830;19.046;2024-01-16T10:29:08;99748.47;;;2.24;76.78
46347;BME280;32057;47.830;19.046;2024-01-16T10:31:34;99748.47;;;2.24;76.96
46347;BME280;32057;47.830;19.046;2024-01-16T10:33:59;99752.78;;;2.05;78.53
46347;BME280;32057;47.830;19.046;2024-01-16T10:36:25;99755.75;;;1.95;78.92
46347;BME280;32057;47.830;19.046;2024-01-16T10:38:51;99755.00;;;1.97;77.40
46347;BME280;32057;47.830;19.046;2024-01-16T10:41:23;99754.84;;;2.12;77.24
46347;BME280;32057;47.830;19.046;2024-01-16T10:44:04;99761.97;;;2.19;75.56
46347;BME280;32057;47.830;19.046;2024-01-16T10:46:29;99755.53;;;2.28;75.08
46347;BME280;32057;47.830;19.046;2024-01-16T10:48:59;99750.38;;;2.28;75.76
46347;BME280;32057;47.830;19.046;2024-01-16T10:51:26;99748.88;;;2.33;74.37
46347;BME280;32057;47.830;19.046;2024-01-16T10:53:58;99748.63;;;2.27;75.39
46347;BME280;32057;47.830;19.046;2024-01-16T10:56:24;99738.94;;;2.41;74.68
46347;BME280;32057;47.830;19.046;2024-01-16T10:59:00;99733.41;;;2.51;73.46
46347;BME280;32057;47.830;19.046;2024-01-16T11:01:28;99732.28;;;2.65;73.43
46347;BME280;32057;47.830;19.046;2024-01-16T11:03:55;99732.66;;;2.53;73.16
46347;BME280;32057;47.830;19.046;2024-01-16T11:06:22;99732.44;;;2.68;73.45
46347;BME280;32057;47.830;19.046;2024-01-16T11:08:49;99736.81;;;2.71;74.03
46347;BME280;32057;47.830;19.046;2024-01-16T11:11:15;99729.19;;;2.72;72.09
46347;BME280;32057;47.830;19.046;2024-01-16T11:13:41;99726.78;;;2.56;74.27
46347;BME280;32057;47.830;19.046;2024-01-16T11:16:10;99730.41;;;2.61;74.09
46347;BME280;32057;47.830;19.046;2024-01-16T11:18:36;99729.19;;;2.72;73.00
46347;BME280;32057;47.830;19.046;2024-01-16T11:21:05;99726.25;;;2.84;72.96
46347;BME280;32057;47.830;19.046;2024-01-16T11:23:31;99726.16;;;2.83;72.74
46347;BME280;32057;47.830;19.046;2024-01-16T11:25:56;99731.50;;;2.66;72.24
46347;BME280;32057;47.830;19.046;2024-01-16T11:28:28;99728.66;;;2.60;72.24
46347;BME280;32057;47.830;19.046;2024-01-16T11:30:56;99724.41;;;2.61;72.13
46347;BME280;32057;47.830;19.046;2024-01-16T11:35:56;99726.13;;;2.62;72.61
46347;BME280;32057;47.830;19.046;2024-01-16T11:38:21;99733.38;;;2.70;72.65
46347;BME280;32057;47.830;19.046;2024-01-16T11:40:47;99734.50;;;2.77;71.08
46347;BME280;32057;47.830;19.046;2024-01-16T11:45:57;99739.34;;;2.90;68.75
46347;BME280;32057;47.830;19.046;2024-01-16T11:48:24;99735.13;;;2.92;69.00
46347;BME280;32057;47.830;19.046;2024-01-16T11:50:49;99728.22;;;2.91;67.56
46347;BME280;32057;47.830;19.046;2024-01-16T12:01:44;99731.56;;;2.89;68.34
46347;BME280;32057;47.830;19.046;2024-01-16T12:04:10;99743.97;;;2.78;68.47
46347;BME280;32057;47.830;19.046;2024-01-16T12:06:36;99736.31;;;2.79;68.65
46347;BME280;32057;47.830;19.046;2024-01-16T12:09:18;99739.56;;;2.75;69.87
46347;BME280;32057;47.830;19.046;2024-01-16T12:11:44;99734.53;;;2.57;69.39
46347;BME280;32057;47.830;19.046;2024-01-16T12:14:20;99731.16;;;2.58;69.29
46347;BME280;32057;47.830;19.046;2024-01-16T12:16:45;99739.28;;;2.68;68.48
46347;BME280;32057;47.830;19.046;2024-01-16T12:19:13;99737.75;;;2.73;67.44
46347;BME280;32057;47.830;19.046;2024-01-16T12:21:43;99739.66;;;2.57;68.73
46347;BME280;32057;47.830;19.046;2024-01-16T12:24:12;99737.84;;;2.55;67.27
46347;BME280;32057;47.830;19.046;2024-01-16T12:26:38;99727.66;;;2.56;66.79
46347;BME280;32057;47.830;19.046;2024-01-16T12:29:04;99735.63;;;2.63;66.63
46347;BME280;32057;47.830;19.046;2024-01-16T12:31:30;99734.53;;;2.57;67.84
46347;BME280;32057;47.830;19.046;2024-01-16T12:34:08;99736.56;;;2.65;66.40
46347;BME280;32057;47.830;19.046;2024-01-16T12:36:34;99735.31;;;2.76;65.80
46347;BME280;32057;47.830;19.046;2024-01-16T12:38:59;99730.50;;;2.84;65.75
46347;BME280;32057;47.830;19.046;2024-01-16T12:41:27;99730.75;;;2.90;65.62
46347;BME280;32057;47.830;19.046;2024-01-16T12:43:53;99730.81;;;2.91;65.61
46347;BME280;32057;47.830;19.046;2024-01-16T12:46:18;99732.16;;;2.82;66.43
46347;BME280;32057;47.830;19.046;2024-01-16T12:48:44;99731.25;;;2.81;66.45
46347;BME280;32057;47.830;19.046;2024-01-16T12:51:10;99722.63;;;2.59;67.43
46347;BME280;32057;47.830;19.046;2024-01-16T12:53:37;99741.19;;;2.52;67.64
46347;BME280;32057;47.830;19.046;2024-01-16T12:56:05;99731.78;;;2.53;66.47
46347;BME280;32057;47.830;19.046;2024-01-16T12:58:37;99736.78;;;2.50;66.49
46347;BME280;32057;47.830;19.046;2024-01-16T13:01:29;99734.25;;;2.51;66.47